Arnot, PA

3:46 AM EDT on October 24, 2014 (GMT -0400)
APRSWXNET Covington PA US | Change Station
CLOSE
Current Station
Personal Weather Station
Location: Blossburg, PA
Elevation: 1538 ft
Nearby Weather Stations

Elev 1538 ft 41.70 °N, 77.10 °W | Updated 43 minutes ago

Overcast
Overcast
49 °F
Feels Like 49 °F
N
3
Wind Variable Wind from NW
Gusts 0.0 mph

Today
High -- | Low -- °F
--% Chance of Precip.
Yesterday
High -- | Low -- °F
Precip. -- in
7:30 AM 6:13 PM
New Moon, 0% visible
Pressure 29.91 in
Visibility 10.0 miles
Clouds Overcast 3000 ft
Windchill 49 °F
Dew Point 43 °F
Humidity 80%
Rainfall -999.00 in
Snow Depth Not available.
UV 0 out of 12
Pollen .30 out of 12
Air Quality Not available.
Flu Activity Sporadic
SPECI KIPT 240731Z AUTO 31010G20KT 10SM OVC030 13/06 A2991 RMK AO2 T01330061

More Conditions Fewer Conditions

Pressure 29.91 in
Visibility 10.0 miles
Clouds Overcast 3000 ft
Windchill 49 °F
Dew Point 43 °F
Humidity 80%
Rainfall -999.00 in
Snow Depth Not available.
UV 0 out of 12
Pollen .30 out of 12
Air Quality Not available.
Flu Activity Sporadic
SPECI KIPT 240731Z AUTO 31010G20KT 10SM OVC030 13/06 A2991 RMK AO2 T01330061

More Conditions Fewer Conditions

10-Day Weather Forecast

Almanac

Astronomy

Oct. 24, 2014 Rise Set
Actual Time 7:30 AM EDT 6:13 PM EDT
Civil Twilight 7:02 AM EDT 6:42 PM EDT
Nautical Twilight 6:30 AM EDT 7:14 PM EDT
Astronomical Twilight 5:57 AM EDT 7:46 PM EDT
Moon 8:08 AM EDT 6:51 PM EDT
Length of Visible Light 11h 39m
Length of Day
10h 42m
Tomorrow will be 2m 34s shorter.
New Moon, 0% of the Moon is Illuminated
Today
New Moon
Oct 30
First Quarter
Nov 6
Full
Nov 14
Last Quarter
Nov 22
New

Today's Extremes

State Highs State Lows

Community

WunderPhotos

Upload Photos

1,764,512 photos uploaded!

WunderBlogs® & News

Nearby

Snow Depth

Station Depth Elevation
No new snow has been reported.

Earthquake Activity

City Distance Mag. Time & Date
No recent earthquake activity has been reported nearby.
Minimum magnitude displayed is 2.5.

Coastal Water Temperatures

Place Temperature
No Stations Reporting

Nearby Weather Stations